createdAt,value
2018-07-20T01:35:01.234Z,26.49
2018-07-20T01:36:01.267Z,26.44
2018-07-20T01:37:01.337Z,26.44
2018-07-20T01:38:01.349Z,26.35
2018-07-20T01:39:01.372Z,26.32
2018-07-20T01:40:01.699Z,26.34
2018-07-20T01:41:01.435Z,26.31
2018-07-20T01:42:01.470Z,26.29
2018-07-20T01:43:01.496Z,26.29
2018-07-20T01:44:01.541Z,26.35
2018-07-20T01:45:01.576Z,26.34
2018-07-20T01:46:02.103Z,26.23
2018-07-20T01:47:01.634Z,26.21
2018-07-20T01:48:01.666Z,26.21
2018-07-20T01:49:01.705Z,26.21
2018-07-20T01:50:01.744Z,26.23
2018-07-20T01:51:01.763Z,26.21
2018-07-20T01:52:02.156Z,26.28
2018-07-20T01:53:02.110Z,26.23
2018-07-20T01:54:01.873Z,26.23
2018-07-20T01:55:01.909Z,26.20
2018-07-20T01:56:01.928Z,26.23
2018-07-20T01:57:01.980Z,26.19
2018-07-20T01:58:02.007Z,26.23
2018-07-20T01:59:02.292Z,26.27
2018-07-20T02:00:02.076Z,26.28
2018-07-20T02:01:02.098Z,26.27
2018-07-20T02:02:02.131Z,26.21
2018-07-20T02:03:02.171Z,26.17
2018-07-20T02:04:02.210Z,26.24
2018-07-20T02:05:02.244Z,26.20
2018-07-20T02:06:02.521Z,26.00
2018-07-20T02:07:02.300Z,26.00
2018-07-20T02:08:02.331Z,26.04
2018-07-20T02:09:02.469Z,25.86
2018-07-20T02:10:02.462Z,25.89
2018-07-20T02:11:02.440Z,25.98
2018-07-20T02:12:02.480Z,25.96
2018-07-20T02:13:02.753Z,25.78
2018-07-20T02:14:02.534Z,25.82
2018-07-20T02:15:02.560Z,25.83
2018-07-20T02:16:02.600Z,25.76
2018-07-20T02:17:02.631Z,25.81
2018-07-20T02:18:02.666Z,25.76
2018-07-20T02:19:02.702Z,25.76
2018-07-20T02:20:03.043Z,25.79
2018-07-20T02:21:02.775Z,25.67
2018-07-20T02:22:02.799Z,25.67
2018-07-20T02:23:02.838Z,25.67
2018-07-20T02:24:02.868Z,25.64
2018-07-20T02:25:02.900Z,25.71
2018-07-20T02:26:02.933Z,25.74
2018-07-20T02:27:03.229Z,25.67
2018-07-20T02:28:03.004Z,25.75
2018-07-20T02:29:03.032Z,25.64
2018-07-20T02:30:03.064Z,25.67
2018-07-20T02:31:03.094Z,25.76
2018-07-20T02:32:03.130Z,25.63
2018-07-20T02:33:03.159Z,25.64
2018-07-20T02:34:03.443Z,25.60
2018-07-20T02:35:03.228Z,25.63
2018-07-20T02:36:03.260Z,25.59
2018-07-20T02:37:03.295Z,25.64
2018-07-20T02:38:03.331Z,25.54
2018-07-20T02:39:03.355Z,25.61
2018-07-20T02:40:03.394Z,25.56
2018-07-20T02:41:03.733Z,25.59
2018-07-20T02:42:03.464Z,25.66
2018-07-20T02:43:03.485Z,25.69
2018-07-20T02:44:03.522Z,25.67
2018-07-20T02:45:03.559Z,25.66
2018-07-20T02:46:03.594Z,25.76
2018-07-20T02:47:03.619Z,25.64
2018-07-20T02:48:03.956Z,25.74
2018-07-20T02:49:03.697Z,25.69
2018-07-20T02:50:03.720Z,25.72
2018-07-20T02:51:03.752Z,25.67
2018-07-20T02:52:03.791Z,25.67
2018-07-20T02:53:03.829Z,25.74
2018-07-20T02:54:04.159Z,25.76
2018-07-20T02:55:04.146Z,25.74
2018-07-20T02:56:03.923Z,25.66
2018-07-20T02:57:03.960Z,25.69
2018-07-20T02:58:03.979Z,25.71
2018-07-20T02:59:04.033Z,25.53
2018-07-20T03:00:04.051Z,25.48
2018-07-20T03:01:04.090Z,25.45
2018-07-20T03:02:04.362Z,25.42
2018-07-20T03:03:04.146Z,25.36
2018-07-20T03:04:04.187Z,25.44
2018-07-20T03:05:04.219Z,25.38
2018-07-20T03:06:04.245Z,25.23
2018-07-20T03:07:04.277Z,25.23
2018-07-20T03:08:04.307Z,25.24
2018-07-20T03:09:04.679Z,25.26
2018-07-20T03:10:04.386Z,25.12
2018-07-20T03:11:04.418Z,25.20
2018-07-20T03:12:04.436Z,25.11
2018-07-20T03:13:04.477Z,25.23
2018-07-20T03:14:04.510Z,25.22
2018-07-20T03:15:04.541Z,25.22
2018-07-20T03:16:04.846Z,25.14
2018-07-20T03:17:04.602Z,25.12
2018-07-20T03:18:04.648Z,25.04
2018-07-20T03:19:04.671Z,24.97
2018-07-20T03:20:04.707Z,25.04
2018-07-20T03:21:04.853Z,24.99
2018-07-20T03:22:05.078Z,25.01
2018-07-20T03:23:04.811Z,25.01
2018-07-20T03:24:04.837Z,25.12
2018-07-20T03:25:04.896Z,25.09
2018-07-20T03:26:05.138Z,25.12
2018-07-20T03:27:04.938Z,25.09
2018-07-20T03:28:05.283Z,25.07
2018-07-20T03:29:04.996Z,25.02
2018-07-20T03:30:05.046Z,25.02
2018-07-20T03:31:05.069Z,25.12
2018-07-20T03:32:05.104Z,25.07
2018-07-20T03:33:05.329Z,25.07
2018-07-20T03:34:05.415Z,25.16
2018-07-20T03:35:05.196Z,25.04
2018-07-20T03:36:05.224Z,25.09
2018-07-20T03:37:05.258Z,25.14
2018-07-20T03:38:05.306Z,25.14
2018-07-20T03:39:05.328Z,25.17
2018-07-20T03:40:05.629Z,25.11
2018-07-20T03:41:05.385Z,25.22
2018-07-20T03:42:05.427Z,25.19
2018-07-20T03:43:05.452Z,25.22
2018-07-20T03:44:05.489Z,25.30
2018-07-20T03:45:05.531Z,25.11
2018-07-20T03:46:05.811Z,25.12
2018-07-20T03:47:05.609Z,25.14
2018-07-20T03:48:05.622Z,25.16
2018-07-20T03:49:05.933Z,25.19
2018-07-20T03:50:05.688Z,25.14
2018-07-20T03:51:05.711Z,25.12
2018-07-20T03:52:06.103Z,25.08
2018-07-20T03:53:05.781Z,25.08
2018-07-20T03:54:05.809Z,25.14
2018-07-20T03:55:05.845Z,25.12
2018-07-20T03:56:05.881Z,25.22
2018-07-20T03:57:05.913Z,25.20
2018-07-20T03:58:06.202Z,25.23
2018-07-20T03:59:05.972Z,25.31
2018-07-20T04:00:06.010Z,25.44
2018-07-20T04:01:06.048Z,25.38
2018-07-20T04:02:06.069Z,25.49
2018-07-20T04:03:06.107Z,25.49
2018-07-20T04:04:06.391Z,25.60
2018-07-20T04:05:06.165Z,25.60
2018-07-20T04:06:06.208Z,25.64
2018-07-20T04:07:06.325Z,25.67
2018-07-20T04:08:06.266Z,25.78
2018-07-20T04:09:06.296Z,25.81
2018-07-20T04:10:06.586Z,25.74
2018-07-20T04:11:06.367Z,25.85
2018-07-20T04:12:06.401Z,25.94
2018-07-20T04:13:06.427Z,26.00
2018-07-20T04:14:06.473Z,26.00
2018-07-20T04:15:06.614Z,25.98
2018-07-20T04:16:06.787Z,26.00
2018-07-20T04:17:06.565Z,26.11
2018-07-20T04:18:06.604Z,26.11
2018-07-20T04:19:06.624Z,26.11
2018-07-20T04:20:06.660Z,26.24
2018-07-20T04:21:06.690Z,26.19
2018-07-20T04:22:06.976Z,26.28
2018-07-20T04:23:06.767Z,26.31
2018-07-20T04:24:06.847Z,26.27
2018-07-20T04:25:06.830Z,26.31
2018-07-20T04:26:06.860Z,26.34
2018-07-20T04:27:06.892Z,26.39
2018-07-20T04:28:07.238Z,26.39
2018-07-20T04:29:06.954Z,26.31
2018-07-20T04:30:06.990Z,26.51
2018-07-20T04:31:07.032Z,26.42
2018-07-20T04:32:07.052Z,26.44
2018-07-20T04:33:07.098Z,26.53
2018-07-20T04:34:07.374Z,26.54
2018-07-20T04:35:07.164Z,26.59
2018-07-20T04:36:07.191Z,26.56
2018-07-20T04:37:07.232Z,26.59
2018-07-20T04:38:07.258Z,26.61
2018-07-20T04:39:07.294Z,26.66
2018-07-20T04:40:07.330Z,26.66
2018-07-20T04:41:07.614Z,26.69
2018-07-20T04:42:07.392Z,26.71
2018-07-20T04:43:07.425Z,26.69
2018-07-20T04:44:07.452Z,26.71
2018-07-20T04:45:07.492Z,26.69
2018-07-20T04:46:07.522Z,26.68
2018-07-20T04:47:07.554Z,26.72
2018-07-20T04:48:07.895Z,26.76
2018-07-20T04:49:07.632Z,26.79
2018-07-20T04:50:07.657Z,26.81
2018-07-20T04:51:07.690Z,26.76
2018-07-20T04:52:07.767Z,26.86
2018-07-20T04:53:07.759Z,26.90
2018-07-20T04:54:07.794Z,26.88
2018-07-20T04:55:08.080Z,26.88
2018-07-20T04:56:07.860Z,26.86
2018-07-20T04:57:07.894Z,26.90
2018-07-20T04:58:07.925Z,26.91
2018-07-20T04:59:07.973Z,26.97
2018-07-20T05:00:08.005Z,26.98
2018-07-20T05:01:08.030Z,26.94
2018-07-20T05:02:08.363Z,26.98
2018-07-20T05:03:08.095Z,26.94
2018-07-20T05:04:08.125Z,27.02
2018-07-20T05:05:08.158Z,26.98
2018-07-20T05:06:08.197Z,27.02
2018-07-20T05:07:08.218Z,27.03
2018-07-20T05:08:08.253Z,27.08
2018-07-20T05:09:08.589Z,27.09
2018-07-20T05:10:08.328Z,26.98
2018-07-20T05:11:08.362Z,27.13
2018-07-20T05:12:08.406Z,27.11
2018-07-20T05:13:08.427Z,27.08
2018-07-20T05:14:08.459Z,27.06
2018-07-20T05:15:08.491Z,27.09
2018-07-20T05:16:08.826Z,27.20
2018-07-20T05:17:08.570Z,27.11
2018-07-20T05:18:08.589Z,27.13
2018-07-20T05:19:08.622Z,27.20
2018-07-20T05:20:08.659Z,27.16
2018-07-20T05:21:08.701Z,27.18
2018-07-20T05:22:08.760Z,27.18
2018-07-20T05:23:09.127Z,27.23
2018-07-20T05:24:08.823Z,27.20
2018-07-20T05:25:08.824Z,27.27
2018-07-20T05:26:09.162Z,27.24
2018-07-20T05:27:09.505Z,27.31
2018-07-20T05:28:09.130Z,27.30
2018-07-20T05:29:08.961Z,27.28
2018-07-20T05:30:09.251Z,27.31
2018-07-20T05:31:09.032Z,27.30
2018-07-20T05:32:09.064Z,27.30
2018-07-20T05:33:09.095Z,27.24
2018-07-20T05:34:09.151Z,27.35
2018-07-20T05:35:09.165Z,27.31
2018-07-20T05:36:09.204Z,27.40
2018-07-20T05:37:09.479Z,27.39
2018-07-20T05:38:09.708Z,27.43
2018-07-20T05:39:09.319Z,27.39
2018-07-20T05:40:09.346Z,27.45
2018-07-20T05:41:09.381Z,27.39
2018-07-20T05:42:09.464Z,27.40
2018-07-20T05:43:09.437Z,27.43
2018-07-20T05:44:09.778Z,27.46
2018-07-20T05:45:09.506Z,27.43
2018-07-20T05:46:09.542Z,27.45
2018-07-20T05:47:09.588Z,27.43
2018-07-20T05:48:09.609Z,27.53
2018-07-20T05:49:09.641Z,27.38
2018-07-20T05:50:09.672Z,27.46
2018-07-20T05:51:09.956Z,27.43
2018-07-20T05:52:09.825Z,27.49
2018-07-20T05:53:09.775Z,27.48
2018-07-20T05:54:09.856Z,27.49
2018-07-20T05:55:09.843Z,27.46
2018-07-20T05:56:09.880Z,27.49
2018-07-20T05:57:10.103Z,27.48
2018-07-20T05:58:10.248Z,27.49
2018-07-20T05:59:09.976Z,27.50
2018-07-20T06:00:10.025Z,27.53
2018-07-20T06:01:10.052Z,27.49
2018-07-20T06:02:10.145Z,27.52
2018-07-20T06:03:10.122Z,27.53
2018-07-20T06:04:10.464Z,27.49
2018-07-20T06:05:10.185Z,27.50
2018-07-20T06:06:10.212Z,27.59
2018-07-20T06:07:10.250Z,27.58
2018-07-20T06:08:10.296Z,27.58
2018-07-20T06:09:10.330Z,27.55
2018-07-20T06:10:10.651Z,27.66
2018-07-20T06:11:10.381Z,27.69
2018-07-20T06:12:10.418Z,27.58
2018-07-20T06:13:10.454Z,27.71
2018-07-20T06:14:10.541Z,27.71
2018-07-20T06:15:10.521Z,27.62
2018-07-20T06:16:10.858Z,27.66
2018-07-20T06:17:10.605Z,27.71
2018-07-20T06:18:10.630Z,27.74
2018-07-20T06:19:10.661Z,27.74
2018-07-20T06:20:10.697Z,27.65
2018-07-20T06:21:10.787Z,27.68
2018-07-20T06:22:11.006Z,27.72
2018-07-20T06:23:10.791Z,27.74
2018-07-20T06:24:10.830Z,27.71
2018-07-20T06:25:10.875Z,27.78
2018-07-20T06:26:10.891Z,27.80
2018-07-20T06:27:10.932Z,27.74
2018-07-20T06:28:11.216Z,27.78
2018-07-20T06:29:10.999Z,27.78
2018-07-20T06:30:11.030Z,27.77
2018-07-20T06:31:11.067Z,27.81
2018-07-20T06:32:11.103Z,27.78
2018-07-20T06:33:11.151Z,27.83
2018-07-20T06:34:11.427Z,27.88
2018-07-20T06:35:11.254Z,27.86
2018-07-20T06:36:11.232Z,27.84
2018-07-20T06:37:11.266Z,27.81
2018-07-20T06:38:11.310Z,27.84
2018-07-20T06:39:11.342Z,27.84
2018-07-20T06:40:11.675Z,27.81
2018-07-20T06:41:11.406Z,27.81
2018-07-20T06:42:11.443Z,27.81
2018-07-20T06:43:17.753Z,27.84
2018-07-20T06:44:11.510Z,27.83
2018-07-20T06:45:11.552Z,27.87
2018-07-20T06:46:11.883Z,27.84
2018-07-20T06:47:11.615Z,27.88
2018-07-20T06:48:11.645Z,27.84
2018-07-20T06:49:11.685Z,27.91
2018-07-20T06:50:11.712Z,27.91
2018-07-20T06:51:11.750Z,27.90
2018-07-20T06:52:12.044Z,27.87
2018-07-20T06:53:11.820Z,27.93
2018-07-20T06:54:11.856Z,27.88
2018-07-20T06:55:12.089Z,27.96
2018-07-20T06:56:11.916Z,27.90
2018-07-20T06:57:12.008Z,27.87
2018-07-20T06:58:12.390Z,27.96
2018-07-20T06:59:12.026Z,27.96
2018-07-20T07:00:12.060Z,27.88
2018-07-20T07:01:12.205Z,27.93
2018-07-20T07:02:13.078Z,27.91
2018-07-20T07:03:12.169Z,27.95
2018-07-20T07:04:12.447Z,27.96
2018-07-20T07:05:12.238Z,27.95
2018-07-20T07:06:12.279Z,27.95
2018-07-20T07:07:13.081Z,27.99
2018-07-20T07:08:12.331Z,28.01
2018-07-20T07:09:12.382Z,27.99
2018-07-20T07:10:12.651Z,28.03
2018-07-20T07:11:12.436Z,28.06
2018-07-20T07:12:12.494Z,28.02
2018-07-20T07:13:12.500Z,28.01
2018-07-20T07:14:12.562Z,28.06
2018-07-20T07:15:12.614Z,28.05
2018-07-20T07:16:13.127Z,28.03
2018-07-20T07:17:12.642Z,28.03
2018-07-20T07:18:12.680Z,28.02
2018-07-20T07:19:12.707Z,28.03
2018-07-20T07:20:12.768Z,28.02
2018-07-20T07:21:12.777Z,28.08
2018-07-20T07:22:13.065Z,28.05
2018-07-20T07:23:12.848Z,28.11
2018-07-20T07:24:12.881Z,28.05
2018-07-20T07:25:12.916Z,28.11
2018-07-20T07:26:12.953Z,28.11
2018-07-20T07:27:13.001Z,28.05
2018-07-20T07:28:13.020Z,28.13
2018-07-20T07:29:13.378Z,28.15
2018-07-20T07:30:13.103Z,28.15
2018-07-20T07:31:13.131Z,28.18
2018-07-20T07:32:13.169Z,28.20
2018-07-20T07:33:13.264Z,28.21
2018-07-20T07:34:13.257Z,28.15
2018-07-20T07:35:13.561Z,28.14
2018-07-20T07:36:13.304Z,28.24
2018-07-20T07:37:13.528Z,28.14
2018-07-20T07:38:13.370Z,28.27
2018-07-20T07:39:13.396Z,28.28
2018-07-20T07:40:13.448Z,28.18
2018-07-20T07:41:13.741Z,28.20
2018-07-20T07:42:13.516Z,28.18
2018-07-20T07:43:13.538Z,28.24
2018-07-20T07:44:13.569Z,28.23
2018-07-20T07:45:13.617Z,28.25
2018-07-20T07:46:13.635Z,28.30
2018-07-20T07:47:14.542Z,28.27
2018-07-20T07:48:13.720Z,28.23
2018-07-20T07:49:13.782Z,28.23
2018-07-20T07:50:13.801Z,28.36
2018-07-20T07:51:13.828Z,28.25
2018-07-20T07:52:13.847Z,28.28
2018-07-20T07:53:14.216Z,28.28
2018-07-20T07:54:13.921Z,28.30
2018-07-20T07:55:13.952Z,28.24
2018-07-20T07:56:14.151Z,28.30
2018-07-20T07:57:14.024Z,28.28
2018-07-20T07:58:14.069Z,28.35
2018-07-20T07:59:14.388Z,28.27
2018-07-20T08:00:14.119Z,28.35
2018-07-20T08:01:14.162Z,28.24
2018-07-20T08:02:14.207Z,28.35
2018-07-20T08:03:14.274Z,28.32
2018-07-20T08:04:14.284Z,28.36
2018-07-20T08:05:14.557Z,28.30
2018-07-20T08:06:14.341Z,28.28
2018-07-20T08:07:14.367Z,28.28
2018-07-20T08:08:14.434Z,28.25
2018-07-20T08:09:14.480Z,28.25
2018-07-20T08:10:14.483Z,28.32
2018-07-20T08:11:14.873Z,28.32
2018-07-20T08:12:14.549Z,28.27
2018-07-20T08:13:14.571Z,28.25
2018-07-20T08:14:14.612Z,28.39
2018-07-20T08:15:14.741Z,28.32
2018-07-20T08:16:14.710Z,28.33
2018-07-20T08:17:15.028Z,28.32
2018-07-20T08:18:14.746Z,28.33
2018-07-20T08:19:14.784Z,28.43
2018-07-20T08:20:14.818Z,28.30
2018-07-20T08:21:15.170Z,28.39
2018-07-20T08:22:14.913Z,28.32
2018-07-20T08:23:15.343Z,28.42
2018-07-20T08:24:14.991Z,28.40
2018-07-20T08:25:15.002Z,28.43
2018-07-20T08:26:15.091Z,28.42
2018-07-20T08:27:15.317Z,28.36
2018-07-20T08:28:15.444Z,28.36
2018-07-20T08:29:15.401Z,28.39
2018-07-20T08:30:15.171Z,28.42
2018-07-20T08:31:15.191Z,28.39
2018-07-20T08:32:15.229Z,28.40
2018-07-20T08:33:15.266Z,28.40
2018-07-20T08:34:15.315Z,28.45
2018-07-20T08:35:15.599Z,28.42
2018-07-20T08:36:15.369Z,28.46
2018-07-20T08:37:15.400Z,28.45
2018-07-20T08:38:15.436Z,28.45
2018-07-20T08:39:15.477Z,28.54
2018-07-20T08:40:15.521Z,28.55
2018-07-20T08:41:15.894Z,28.51
2018-07-20T08:42:15.583Z,28.45
2018-07-20T08:43:15.618Z,28.55
2018-07-20T08:44:15.653Z,28.45
2018-07-20T08:45:15.828Z,28.55
2018-07-20T08:46:15.715Z,28.50
2018-07-20T08:47:16.137Z,28.48
2018-07-20T08:48:15.788Z,28.52
2018-07-20T08:49:15.821Z,28.54
2018-07-20T08:50:16.085Z,28.52
2018-07-20T08:51:16.086Z,28.54
2018-07-20T08:52:16.535Z,28.60
2018-07-20T08:53:16.222Z,28.57
2018-07-20T08:54:16.504Z,28.57
2018-07-20T08:55:16.231Z,28.52
2018-07-20T08:56:16.064Z,28.55
2018-07-20T08:57:16.256Z,28.54
2018-07-20T08:58:16.135Z,28.54
2018-07-20T08:59:16.510Z,28.58
2018-07-20T09:00:16.375Z,28.60
2018-07-20T09:01:16.239Z,28.58
2018-07-20T09:02:16.268Z,28.64
2018-07-20T09:03:16.304Z,28.58
2018-07-20T09:04:16.394Z,28.60
2018-07-20T09:05:17.251Z,28.62
2018-07-20T09:06:16.426Z,28.62
2018-07-20T09:07:16.456Z,28.62
2018-07-20T09:08:16.486Z,28.64
2018-07-20T09:09:16.517Z,28.65
2018-07-20T09:10:16.558Z,28.73
2018-07-20T09:11:16.847Z,28.64
2018-07-20T09:12:16.621Z,28.73
2018-07-20T09:13:16.651Z,28.67
2018-07-20T09:14:16.747Z,28.64
2018-07-20T09:15:16.734Z,28.69
2018-07-20T09:16:16.771Z,28.72
2018-07-20T09:17:17.132Z,28.77
2018-07-20T09:18:17.073Z,28.73
2018-07-20T09:19:16.865Z,28.82
2018-07-20T09:20:17.502Z,28.77
2018-07-20T09:21:17.132Z,28.74
2018-07-20T09:22:16.977Z,28.76
2018-07-20T09:23:17.260Z,28.77
2018-07-20T09:24:17.047Z,28.80
2018-07-20T09:25:17.077Z,28.74
2018-07-20T09:26:17.315Z,28.79
2018-07-20T09:27:17.145Z,28.77
2018-07-20T09:28:17.228Z,28.82
2018-07-20T09:29:17.617Z,28.80
2018-07-20T09:30:17.250Z,28.80
2018-07-20T09:31:17.504Z,28.77
2018-07-20T09:32:17.324Z,28.76
2018-07-20T09:33:17.356Z,28.87
2018-07-20T09:34:17.401Z,28.82
2018-07-20T09:35:17.677Z,28.82
2018-07-20T09:36:17.458Z,28.83
2018-07-20T09:37:17.505Z,28.87
2018-07-20T09:38:17.557Z,28.87
2018-07-20T09:39:17.568Z,28.85
2018-07-20T09:40:17.634Z,28.87
2018-07-20T09:41:17.887Z,28.83
2018-07-20T09:42:17.668Z,28.79
2018-07-20T09:43:17.706Z,28.87
2018-07-20T09:44:17.847Z,28.82
2018-07-20T09:45:17.783Z,28.83
2018-07-20T09:46:17.816Z,28.88
2018-07-20T09:47:18.344Z,28.83
2018-07-20T09:48:17.891Z,28.97
2018-07-20T09:49:17.911Z,28.95
2018-07-20T09:50:18.559Z,28.91
2018-07-20T09:51:18.147Z,28.87
2018-07-20T09:52:18.176Z,28.92
2018-07-20T09:53:18.317Z,28.92
2018-07-20T09:54:18.331Z,28.91
2018-07-20T09:55:18.130Z,28.87
2018-07-20T09:56:18.159Z,28.91
2018-07-20T09:57:18.204Z,28.92
2018-07-20T09:58:18.242Z,28.85
2018-07-20T09:59:18.570Z,28.92
2018-07-20T10:00:18.316Z,28.91
2018-07-20T10:01:18.336Z,28.94
2018-07-20T10:02:18.372Z,28.94
2018-07-20T10:03:18.408Z,28.94
2018-07-20T10:04:18.449Z,28.91
2018-07-20T10:05:18.734Z,28.97
2018-07-20T10:06:18.515Z,29.02
2018-07-20T10:07:18.544Z,28.91
2018-07-20T10:08:18.585Z,29.00
2018-07-20T10:09:18.616Z,29.05
2018-07-20T10:10:18.652Z,29.02
2018-07-20T10:11:19.048Z,29.08
2018-07-20T10:12:18.734Z,29.02
2018-07-20T10:13:18.761Z,28.97
2018-07-20T10:14:18.805Z,29.08
2018-07-20T10:15:18.830Z,29.08
2018-07-20T10:16:18.885Z,29.07
2018-07-20T10:17:19.196Z,29.10
2018-07-20T10:18:18.951Z,29.07
2018-07-20T10:19:18.972Z,29.08
2018-07-20T10:20:19.005Z,29.08
2018-07-20T10:21:19.144Z,29.12
2018-07-20T10:22:19.081Z,29.07
2018-07-20T10:23:19.366Z,29.08
2018-07-20T10:24:19.180Z,29.07
2018-07-20T10:25:19.181Z,29.07
2018-07-20T10:26:19.217Z,29.18
2018-07-20T10:27:19.300Z,29.14
2018-07-20T10:28:19.292Z,29.10
2018-07-20T10:29:19.627Z,29.11
2018-07-20T10:30:19.359Z,29.08
2018-07-20T10:31:19.390Z,29.20
2018-07-20T10:32:19.429Z,29.14
2018-07-20T10:33:19.470Z,29.11
2018-07-20T10:34:19.502Z,29.11
2018-07-20T10:35:19.793Z,29.15
2018-07-20T10:36:19.569Z,29.14
2018-07-20T10:37:19.619Z,29.17
2018-07-20T10:38:19.664Z,29.17
2018-07-20T10:39:19.690Z,29.15
2018-07-20T10:40:19.711Z,29.18
2018-07-20T10:41:20.056Z,29.11
2018-07-20T10:42:19.785Z,29.17
2018-07-20T10:43:19.819Z,29.17
2018-07-20T10:44:20.090Z,29.18
2018-07-20T10:45:20.088Z,29.18
2018-07-20T10:46:19.926Z,29.29
2018-07-20T10:47:20.492Z,29.18
2018-07-20T10:48:20.945Z,29.27
2018-07-20T10:49:21.031Z,29.21
2018-07-20T10:50:20.669Z,29.21
2018-07-20T10:51:20.135Z,29.18
2018-07-20T10:52:20.143Z,29.27
2018-07-20T10:53:20.496Z,29.27
2018-07-20T10:54:20.235Z,29.33
2018-07-20T10:55:20.248Z,29.29
2018-07-20T10:56:20.292Z,29.35
2018-07-20T10:57:20.365Z,29.27
2018-07-20T10:58:20.353Z,29.26
2018-07-20T10:59:20.685Z,29.33
2018-07-20T11:00:20.435Z,29.26
2018-07-20T11:01:20.517Z,29.29
2018-07-20T11:02:20.534Z,29.30
2018-07-20T11:03:20.536Z,29.29
2018-07-20T11:04:20.558Z,29.36
2018-07-20T11:05:21.134Z,29.27
2018-07-20T11:06:20.644Z,29.30
2018-07-20T11:07:20.681Z,29.30
2018-07-20T11:08:21.344Z,29.29
2018-07-20T11:09:20.741Z,29.25
2018-07-20T11:10:20.768Z,29.42
2018-07-20T11:11:21.101Z,29.37
2018-07-20T11:12:21.075Z,29.41
2018-07-20T11:13:21.489Z,29.41
2018-07-20T11:14:20.963Z,29.37
2018-07-20T11:15:21.429Z,29.41
2018-07-20T11:16:20.996Z,29.33
2018-07-20T11:17:21.270Z,29.37
2018-07-20T11:18:21.280Z,29.30
2018-07-20T11:19:22.228Z,29.39
2018-07-20T11:20:21.474Z,29.33
2018-07-20T11:21:21.166Z,29.42
2018-07-20T11:22:21.203Z,29.37
2018-07-20T11:23:21.579Z,29.39
2018-07-20T11:24:21.371Z,29.37
2018-07-20T11:25:21.308Z,29.39
2018-07-20T11:26:21.334Z,29.39
2018-07-20T11:27:21.373Z,29.36
2018-07-20T11:28:21.415Z,29.36
2018-07-20T11:29:21.454Z,29.37
2018-07-20T11:30:21.509Z,29.37
2018-07-20T11:31:21.512Z,29.39
2018-07-20T11:32:21.615Z,29.44
2018-07-20T11:33:21.601Z,29.35
2018-07-20T11:34:21.896Z,29.41
2018-07-20T11:35:21.663Z,29.45
2018-07-20T11:36:21.695Z,29.32
2018-07-20T11:37:21.728Z,29.41
2018-07-20T11:38:21.771Z,29.45
2018-07-20T11:39:21.883Z,29.48
2018-07-20T11:40:22.339Z,29.51
2018-07-20T11:41:21.873Z,29.47
2018-07-20T11:42:21.928Z,29.51
2018-07-20T11:43:21.959Z,29.42
2018-07-20T11:44:22.401Z,29.47
2018-07-20T11:45:22.239Z,29.47
2018-07-20T11:46:22.312Z,29.48
2018-07-20T11:47:22.087Z,29.49
2018-07-20T11:48:22.326Z,29.44
2018-07-20T11:49:22.155Z,29.48
2018-07-20T11:50:22.198Z,29.48
2018-07-20T11:51:22.224Z,29.49
2018-07-20T11:52:22.266Z,29.49
2018-07-20T11:53:22.545Z,29.45
2018-07-20T11:54:22.343Z,29.45
2018-07-20T11:55:22.367Z,29.51
2018-07-20T11:56:22.412Z,29.49
2018-07-20T11:57:22.450Z,29.54
2018-07-20T11:58:22.473Z,29.54
2018-07-20T11:59:22.758Z,29.54
2018-07-20T12:00:22.548Z,29.54
2018-07-20T12:01:22.612Z,29.57
2018-07-20T12:02:22.620Z,29.51
2018-07-20T12:03:22.659Z,29.49
2018-07-20T12:04:22.689Z,29.45
2018-07-20T12:05:23.150Z,29.55
2018-07-20T12:06:22.824Z,29.48
2018-07-20T12:07:22.794Z,29.48
2018-07-20T12:08:22.828Z,29.58
2018-07-20T12:09:22.869Z,29.47
2018-07-20T12:10:22.938Z,29.47
2018-07-20T12:11:23.246Z,29.45
2018-07-20T12:12:22.979Z,29.51
2018-07-20T12:13:23.022Z,29.55
2018-07-20T12:14:23.055Z,29.51
2018-07-20T12:15:23.105Z,29.58
2018-07-20T12:16:23.121Z,29.51
2018-07-20T12:17:23.405Z,29.55
2018-07-20T12:18:23.389Z,29.57
2018-07-20T12:19:23.233Z,29.55
2018-07-20T12:20:23.751Z,29.55
2018-07-20T12:21:23.311Z,29.57
2018-07-20T12:22:23.337Z,29.64
2018-07-20T12:23:23.626Z,29.57
2018-07-20T12:24:23.416Z,29.57
2018-07-20T12:25:23.457Z,29.64
2018-07-20T12:26:23.489Z,29.64
2018-07-20T12:27:23.509Z,29.66
2018-07-20T12:28:23.753Z,29.64
2018-07-20T12:29:23.831Z,29.60
2018-07-20T12:30:23.786Z,29.64
2018-07-20T12:31:23.662Z,29.74
2018-07-20T12:32:23.694Z,29.71
2018-07-20T12:33:23.726Z,29.73
2018-07-20T12:34:23.762Z,29.69
2018-07-20T12:35:24.101Z,29.69
2018-07-20T12:36:23.844Z,29.74
2018-07-20T12:37:23.872Z,29.79
2018-07-20T12:38:23.936Z,29.81
2018-07-20T12:39:24.140Z,29.81
2018-07-20T12:40:23.985Z,29.78
2018-07-20T12:41:24.265Z,29.78
2018-07-20T12:42:24.067Z,29.76
2018-07-20T12:43:24.097Z,29.78
2018-07-20T12:44:24.153Z,29.74
2018-07-20T12:45:24.161Z,29.81
2018-07-20T12:46:24.260Z,29.79
2018-07-20T12:47:24.481Z,29.84
2018-07-20T12:48:24.273Z,29.84
2018-07-20T12:49:24.309Z,29.76
2018-07-20T12:50:24.407Z,29.84
2018-07-20T12:51:24.429Z,29.82
2018-07-20T12:52:24.415Z,29.79
2018-07-20T12:53:24.831Z,29.82
2018-07-20T12:54:24.481Z,29.89
2018-07-20T12:55:24.514Z,29.84
2018-07-20T12:56:24.563Z,29.88
2018-07-20T12:57:24.604Z,29.88
2018-07-20T12:58:24.667Z,29.85
2018-07-20T12:59:24.922Z,29.94
2018-07-20T13:00:24.704Z,29.86
2018-07-20T13:01:24.757Z,29.88
2018-07-20T13:02:24.771Z,29.86
2018-07-20T13:03:24.808Z,30.03
2018-07-20T13:04:24.843Z,29.92
2018-07-20T13:05:25.195Z,30.06
2018-07-20T13:06:24.972Z,30.01
2018-07-20T13:07:24.952Z,30.00
2018-07-20T13:08:24.997Z,30.00
2018-07-20T13:09:25.153Z,30.10
2018-07-20T13:10:25.175Z,30.00
2018-07-20T13:11:25.422Z,30.10
2018-07-20T13:12:25.177Z,30.07
2018-07-20T13:13:25.173Z,30.11
2018-07-20T13:14:25.213Z,30.13
2018-07-20T13:15:25.244Z,30.13
2018-07-20T13:16:25.287Z,30.18
2018-07-20T13:17:26.225Z,30.29
2018-07-20T13:18:25.356Z,30.25
2018-07-20T13:19:25.386Z,30.22
2018-07-20T13:20:25.437Z,30.22
2018-07-20T13:21:25.492Z,30.38
2018-07-20T13:22:25.499Z,30.40
2018-07-20T13:23:25.848Z,30.40
2018-07-20T13:24:25.584Z,30.42
2018-07-20T13:25:25.619Z,30.44
2018-07-20T13:26:25.647Z,30.48
2018-07-20T13:27:25.789Z,30.63
2018-07-20T13:28:25.736Z,30.57
2018-07-20T13:29:26.010Z,30.63
2018-07-20T13:30:25.796Z,30.68
2018-07-20T13:31:25.841Z,30.67
2018-07-20T13:32:26.108Z,30.66
2018-07-20T13:33:25.939Z,30.73
2018-07-20T13:34:26.157Z,30.83
2018-07-20T13:35:26.230Z,30.86
2018-07-20T13:36:26.021Z,30.93
2018-07-20T13:37:26.261Z,30.83
2018-07-20T13:38:26.124Z,30.94
2018-07-20T13:39:26.161Z,30.93
2018-07-20T13:40:26.177Z,31.01
2018-07-20T13:41:26.472Z,31.05
2018-07-20T13:42:26.273Z,31.05
2018-07-20T13:43:26.282Z,31.18
2018-07-20T13:44:26.322Z,31.18
2018-07-20T13:45:26.422Z,31.19
2018-07-20T13:46:26.395Z,31.28
2018-07-20T13:47:26.689Z,31.32
2018-07-20T13:48:26.474Z,31.32
2018-07-20T13:49:26.510Z,31.37
2018-07-20T13:50:26.544Z,31.40
2018-07-20T13:51:26.587Z,31.42
2018-07-20T13:52:26.640Z,31.47
2018-07-20T13:53:27.141Z,31.47
2018-07-20T13:54:26.702Z,31.50
2018-07-20T13:55:26.755Z,31.56
2018-07-20T13:56:26.775Z,31.64
2018-07-20T13:57:27.421Z,31.64
2018-07-20T13:58:26.877Z,31.68
2018-07-20T13:59:27.204Z,31.68
2018-07-20T14:00:26.944Z,31.69
2018-07-20T14:01:27.443Z,31.82
2018-07-20T14:02:27.457Z,31.78
2018-07-20T14:03:27.084Z,31.91
2018-07-20T14:04:27.288Z,31.88
2018-07-20T14:05:27.370Z,31.91
2018-07-20T14:06:27.158Z,31.98
2018-07-20T14:07:27.239Z,31.99
2018-07-20T14:08:27.511Z,31.97
2018-07-20T14:09:27.277Z,32.09
2018-07-20T14:10:27.520Z,32.12
2018-07-20T14:11:27.824Z,32.14
2018-07-20T14:12:27.391Z,32.14
2018-07-20T14:13:27.737Z,32.17
2018-07-20T14:14:27.468Z,32.19
2018-07-20T14:15:27.506Z,32.25
2018-07-20T14:16:27.552Z,32.25
2018-07-20T14:17:27.584Z,32.31
2018-07-20T14:18:27.629Z,32.29
2018-07-20T14:19:27.699Z,32.32
2018-07-20T14:20:27.702Z,32.35
2018-07-20T14:21:27.742Z,32.32
2018-07-20T14:22:28.382Z,32.51
2018-07-20T14:23:28.332Z,32.51
2018-07-20T14:24:28.025Z,32.56
2018-07-20T14:25:27.904Z,32.56
2018-07-20T14:26:28.183Z,32.58
2018-07-20T14:27:28.177Z,32.61